sensor_id;sensor_type;location;lat;lon;timestamp;temperature;humidity
37910;DHT22;23741;49.446;8.754;2023-07-30T00:01:07;22.90;74.50
37910;DHT22;23741;49.446;8.754;2023-07-30T00:03:09;22.90;74.30
37910;DHT22;23741;49.446;8.754;2023-07-30T00:05:11;23.00;74.40
37910;DHT22;23741;49.446;8.754;2023-07-30T00:07:13;22.90;74.30
37910;DHT22;23741;49.446;8.754;2023-07-30T00:09:15;22.90;74.40
37910;DHT22;23741;49.446;8.754;2023-07-30T00:11:17;22.90;74.50
37910;DHT22;23741;49.446;8.754;2023-07-30T00:13:19;22.90;74.50
37910;DHT22;23741;49.446;8.754;2023-07-30T00:15:20;22.90;74.50
37910;DHT22;23741;49.446;8.754;2023-07-30T00:17:22;22.90;74.50
37910;DHT22;23741;49.446;8.754;2023-07-30T00:19:24;22.90;74.60
37910;DHT22;23741;49.446;8.754;2023-07-30T00:21:26;22.80;74.70
37910;DHT22;23741;49.446;8.754;2023-07-30T00:23:28;22.90;74.90
37910;DHT22;23741;49.446;8.754;2023-07-30T00:25:30;22.80;74.80
37910;DHT22;23741;49.446;8.754;2023-07-30T00:27:31;22.80;74.80
37910;DHT22;23741;49.446;8.754;2023-07-30T00:29:33;22.90;75.00
37910;DHT22;23741;49.446;8.754;2023-07-30T00:31:35;22.80;75.10
37910;DHT22;23741;49.446;8.754;2023-07-30T00:33:38;22.80;75.20
37910;DHT22;23741;49.446;8.754;2023-07-30T00:35:39;22.80;75.40
37910;DHT22;23741;49.446;8.754;2023-07-30T00:37:41;22.80;75.40
37910;DHT22;23741;49.446;8.754;2023-07-30T00:39:43;22.80;75.40
37910;DHT22;23741;49.446;8.754;2023-07-30T00:41:45;22.80;75.40
37910;DHT22;23741;49.446;8.754;2023-07-30T00:43:47;22.80;75.40
37910;DHT22;23741;49.446;8.754;2023-07-30T00:45:49;22.70;75.40
37910;DHT22;23741;49.446;8.754;2023-07-30T00:47:51;22.70;75.30
37910;DHT22;23741;49.446;8.754;2023-07-30T00:49:53;22.70;75.40
37910;DHT22;23741;49.446;8.754;2023-07-30T00:51:55;22.70;75.50
37910;DHT22;23741;49.446;8.754;2023-07-30T00:54:00;22.70;75.70
37910;DHT22;23741;49.446;8.754;2023-07-30T00:56:02;22.70;75.70
37910;DHT22;23741;49.446;8.754;2023-07-30T00:58:04;22.70;75.70
37910;DHT22;23741;49.446;8.754;2023-07-30T01:00:07;22.70;75.50
37910;DHT22;23741;49.446;8.754;2023-07-30T01:02:10;22.70;75.60
37910;DHT22;23741;49.446;8.754;2023-07-30T01:04:16;22.70;75.70
37910;DHT22;23741;49.446;8.754;2023-07-30T01:06:18;22.70;75.70
37910;DHT22;23741;49.446;8.754;2023-07-30T01:08:22;22.70;75.40
37910;DHT22;23741;49.446;8.754;2023-07-30T01:10:25;22.70;75.60
37910;DHT22;23741;49.446;8.754;2023-07-30T01:12:29;22.70;75.60
37910;DHT22;23741;49.446;8.754;2023-07-30T01:14:32;22.70;75.80
37910;DHT22;23741;49.446;8.754;2023-07-30T01:16:35;22.70;75.70
37910;DHT22;23741;49.446;8.754;2023-07-30T01:18:37;22.70;75.80
37910;DHT22;23741;49.446;8.754;2023-07-30T01:20:39;22.70;75.70
37910;DHT22;23741;49.446;8.754;2023-07-30T01:22:41;22.70;75.70
37910;DHT22;23741;49.446;8.754;2023-07-30T01:24:43;22.70;75.60
37910;DHT22;23741;49.446;8.754;2023-07-30T01:27:05;22.70;75.70
37910;DHT22;23741;49.446;8.754;2023-07-30T01:29:14;22.70;76.20
37910;DHT22;23741;49.446;8.754;2023-07-30T01:31:18;22.70;76.00
37910;DHT22;23741;49.446;8.754;2023-07-30T01:33:20;22.70;75.80
37910;DHT22;23741;49.446;8.754;2023-07-30T01:35:26;22.70;76.10
37910;DHT22;23741;49.446;8.754;2023-07-30T01:37:29;22.70;75.70
37910;DHT22;23741;49.446;8.754;2023-07-30T01:39:32;22.70;75.90
37910;DHT22;23741;49.446;8.754;2023-07-30T01:41:35;22.70;76.00
37910;DHT22;23741;49.446;8.754;2023-07-30T01:43:37;22.70;76.00
37910;DHT22;23741;49.446;8.754;2023-07-30T01:45:39;22.80;76.30
37910;DHT22;23741;49.446;8.754;2023-07-30T01:47:42;22.70;76.10
37910;DHT22;23741;49.446;8.754;2023-07-30T01:49:44;22.80;76.20
37910;DHT22;23741;49.446;8.754;2023-07-30T01:51:46;22.70;75.70
37910;DHT22;23741;49.446;8.754;2023-07-30T01:53:47;22.80;75.90
37910;DHT22;23741;49.446;8.754;2023-07-30T01:55:49;22.80;75.90
37910;DHT22;23741;49.446;8.754;2023-07-30T01:57:51;22.80;75.80
37910;DHT22;23741;49.446;8.754;2023-07-30T01:59:53;22.80;75.90
37910;DHT22;23741;49.446;8.754;2023-07-30T02:01:55;22.90;75.90
37910;DHT22;23741;49.446;8.754;2023-07-30T02:03:57;22.80;75.90
37910;DHT22;23741;49.446;8.754;2023-07-30T02:06:02;22.80;76.00
37910;DHT22;23741;49.446;8.754;2023-07-30T02:08:03;22.80;76.00
37910;DHT22;23741;49.446;8.754;2023-07-30T02:10:05;22.80;76.00
37910;DHT22;23741;49.446;8.754;2023-07-30T02:12:07;22.80;76.00
37910;DHT22;23741;49.446;8.754;2023-07-30T02:14:09;22.80;76.10
37910;DHT22;23741;49.446;8.754;2023-07-30T02:16:12;22.80;75.90
37910;DHT22;23741;49.446;8.754;2023-07-30T02:18:14;22.80;75.80
37910;DHT22;23741;49.446;8.754;2023-07-30T02:20:16;22.80;75.70
37910;DHT22;23741;49.446;8.754;2023-07-30T02:22:17;22.80;75.60
37910;DHT22;23741;49.446;8.754;2023-07-30T02:24:19;22.80;75.60
37910;DHT22;23741;49.446;8.754;2023-07-30T02:26:21;22.80;75.60
37910;DHT22;23741;49.446;8.754;2023-07-30T02:28:23;22.80;75.60
37910;DHT22;23741;49.446;8.754;2023-07-30T02:30:25;22.80;75.40
37910;DHT22;23741;49.446;8.754;2023-07-30T02:32:26;22.80;75.50
37910;DHT22;23741;49.446;8.754;2023-07-30T02:34:28;22.80;75.50
37910;DHT22;23741;49.446;8.754;2023-07-30T02:36:30;22.80;75.40
37910;DHT22;23741;49.446;8.754;2023-07-30T02:38:32;22.80;75.30
37910;DHT22;23741;49.446;8.754;2023-07-30T02:40:36;22.70;75.20
37910;DHT22;23741;49.446;8.754;2023-07-30T02:42:37;22.80;75.20
37910;DHT22;23741;49.446;8.754;2023-07-30T02:44:39;22.80;75.20
37910;DHT22;23741;49.446;8.754;2023-07-30T02:46:41;22.80;75.20
37910;DHT22;23741;49.446;8.754;2023-07-30T02:48:43;22.80;75.00
37910;DHT22;23741;49.446;8.754;2023-07-30T02:50:45;22.80;75.00
37910;DHT22;23741;49.446;8.754;2023-07-30T02:52:47;22.70;74.90
37910;DHT22;23741;49.446;8.754;2023-07-30T02:54:48;22.80;74.90
37910;DHT22;23741;49.446;8.754;2023-07-30T02:56:50;22.70;74.90
37910;DHT22;23741;49.446;8.754;2023-07-30T02:58:52;22.80;75.00
37910;DHT22;23741;49.446;8.754;2023-07-30T03:00:54;22.70;75.10
37910;DHT22;23741;49.446;8.754;2023-07-30T03:02:56;22.70;75.00
37910;DHT22;23741;49.446;8.754;2023-07-30T03:04:58;22.70;74.90
37910;DHT22;23741;49.446;8.754;2023-07-30T03:07:00;22.70;75.00
37910;DHT22;23741;49.446;8.754;2023-07-30T03:09:02;22.70;74.90
37910;DHT22;23741;49.446;8.754;2023-07-30T03:11:04;22.70;74.90
37910;DHT22;23741;49.446;8.754;2023-07-30T03:13:06;22.70;75.00
37910;DHT22;23741;49.446;8.754;2023-07-30T03:15:08;22.70;75.00
37910;DHT22;23741;49.446;8.754;2023-07-30T03:17:10;22.70;75.00
37910;DHT22;23741;49.446;8.754;2023-07-30T03:19:12;22.70;75.00
37910;DHT22;23741;49.446;8.754;2023-07-30T03:21:14;22.70;75.00
37910;DHT22;23741;49.446;8.754;2023-07-30T03:23:16;22.70;74.90
37910;DHT22;23741;49.446;8.754;2023-07-30T03:25:18;22.70;75.00
37910;DHT22;23741;49.446;8.754;2023-07-30T03:27:19;22.70;75.00
37910;DHT22;23741;49.446;8.754;2023-07-30T03:29:22;22.70;75.10
37910;DHT22;23741;49.446;8.754;2023-07-30T03:31:24;22.70;75.10
37910;DHT22;23741;49.446;8.754;2023-07-30T03:33:27;22.60;75.10
37910;DHT22;23741;49.446;8.754;2023-07-30T03:35:28;22.70;75.40
37910;DHT22;23741;49.446;8.754;2023-07-30T03:37:30;22.60;75.00
37910;DHT22;23741;49.446;8.754;2023-07-30T03:39:32;22.60;75.00
37910;DHT22;23741;49.446;8.754;2023-07-30T03:41:34;22.60;75.10
37910;DHT22;23741;49.446;8.754;2023-07-30T03:43:37;22.60;75.20
37910;DHT22;23741;49.446;8.754;2023-07-30T03:45:39;22.60;75.20
37910;DHT22;23741;49.446;8.754;2023-07-30T03:47:41;22.60;75.30
37910;DHT22;23741;49.446;8.754;2023-07-30T03:49:42;22.60;75.40
37910;DHT22;23741;49.446;8.754;2023-07-30T03:51:44;22.60;75.50
37910;DHT22;23741;49.446;8.754;2023-07-30T03:53:46;22.60;75.60
37910;DHT22;23741;49.446;8.754;2023-07-30T03:55:48;22.50;75.50
37910;DHT22;23741;49.446;8.754;2023-07-30T03:57:50;22.50;75.40
37910;DHT22;23741;49.446;8.754;2023-07-30T03:59:52;22.50;75.40
37910;DHT22;23741;49.446;8.754;2023-07-30T04:01:54;22.50;75.40
37910;DHT22;23741;49.446;8.754;2023-07-30T04:03:56;22.50;75.50
37910;DHT22;23741;49.446;8.754;2023-07-30T04:05:58;22.50;75.60
37910;DHT22;23741;49.446;8.754;2023-07-30T04:08:00;22.50;75.50
37910;DHT22;23741;49.446;8.754;2023-07-30T04:10:02;22.50;75.60
37910;DHT22;23741;49.446;8.754;2023-07-30T04:12:04;22.50;75.60
37910;DHT22;23741;49.446;8.754;2023-07-30T04:14:06;22.50;75.70
37910;DHT22;23741;49.446;8.754;2023-07-30T04:16:09;22.50;75.70
37910;DHT22;23741;49.446;8.754;2023-07-30T04:18:11;22.50;75.70
37910;DHT22;23741;49.446;8.754;2023-07-30T04:20:13;22.50;75.70
37910;DHT22;23741;49.446;8.754;2023-07-30T04:22:15;22.50;75.70
37910;DHT22;23741;49.446;8.754;2023-07-30T04:24:16;22.50;75.70
37910;DHT22;23741;49.446;8.754;2023-07-30T04:26:18;22.50;75.70
37910;DHT22;23741;49.446;8.754;2023-07-30T04:28:20;22.50;75.70
37910;DHT22;23741;49.446;8.754;2023-07-30T04:30:22;22.50;75.80
37910;DHT22;23741;49.446;8.754;2023-07-30T04:32:24;22.40;75.80
37910;DHT22;23741;49.446;8.754;2023-07-30T04:34:26;22.50;76.00
37910;DHT22;23741;49.446;8.754;2023-07-30T04:36:27;22.50;76.00
37910;DHT22;23741;49.446;8.754;2023-07-30T04:38:32;22.50;76.00
37910;DHT22;23741;49.446;8.754;2023-07-30T04:40:34;22.50;76.10
37910;DHT22;23741;49.446;8.754;2023-07-30T04:42:36;22.50;76.10
37910;DHT22;23741;49.446;8.754;2023-07-30T04:44:38;22.50;77.00
37910;DHT22;23741;49.446;8.754;2023-07-30T04:46:46;22.40;76.10
37910;DHT22;23741;49.446;8.754;2023-07-30T04:48:47;22.40;76.10
37910;DHT22;23741;49.446;8.754;2023-07-30T04:50:52;22.40;76.20
37910;DHT22;23741;49.446;8.754;2023-07-30T04:52:54;22.40;76.20
37910;DHT22;23741;49.446;8.754;2023-07-30T04:54:56;22.40;76.10
37910;DHT22;23741;49.446;8.754;2023-07-30T04:56:58;22.40;75.90
37910;DHT22;23741;49.446;8.754;2023-07-30T04:59:01;22.40;76.00
37910;DHT22;23741;49.446;8.754;2023-07-30T05:01:02;22.40;76.00
37910;DHT22;23741;49.446;8.754;2023-07-30T05:03:07;22.40;76.10
37910;DHT22;23741;49.446;8.754;2023-07-30T05:05:09;22.40;76.10
37910;DHT22;23741;49.446;8.754;2023-07-30T05:07:14;22.40;75.80
37910;DHT22;23741;49.446;8.754;2023-07-30T05:09:16;22.40;75.70
37910;DHT22;23741;49.446;8.754;2023-07-30T05:11:17;22.40;75.70
37910;DHT22;23741;49.446;8.754;2023-07-30T05:13:19;22.40;75.80
37910;DHT22;23741;49.446;8.754;2023-07-30T05:15:21;22.40;75.70
37910;DHT22;23741;49.446;8.754;2023-07-30T05:17:23;22.40;75.80
37910;DHT22;23741;49.446;8.754;2023-07-30T05:19:25;22.40;75.80
37910;DHT22;23741;49.446;8.754;2023-07-30T05:21:26;22.40;75.90
37910;DHT22;23741;49.446;8.754;2023-07-30T05:23:28;22.40;75.90
37910;DHT22;23741;49.446;8.754;2023-07-30T05:25:30;22.30;75.80
37910;DHT22;23741;49.446;8.754;2023-07-30T05:27:32;22.40;76.00
37910;DHT22;23741;49.446;8.754;2023-07-30T05:29:34;22.30;76.00
37910;DHT22;23741;49.446;8.754;2023-07-30T05:31:36;22.40;75.90
37910;DHT22;23741;49.446;8.754;2023-07-30T05:33:39;22.40;75.80
37910;DHT22;23741;49.446;8.754;2023-07-30T05:35:41;22.40;75.90
37910;DHT22;23741;49.446;8.754;2023-07-30T05:37:43;22.40;75.90
37910;DHT22;23741;49.446;8.754;2023-07-30T05:39:44;22.40;75.90
37910;DHT22;23741;49.446;8.754;2023-07-30T05:41:46;22.40;76.90
37910;DHT22;23741;49.446;8.754;2023-07-30T05:43:48;22.30;76.30
37910;DHT22;23741;49.446;8.754;2023-07-30T05:45:50;22.40;76.60
37910;DHT22;23741;49.446;8.754;2023-07-30T05:47:52;22.40;76.70
37910;DHT22;23741;49.446;8.754;2023-07-30T05:49:54;22.40;76.80
37910;DHT22;23741;49.446;8.754;2023-07-30T05:51:56;22.40;76.90
37910;DHT22;23741;49.446;8.754;2023-07-30T05:53:57;22.40;76.70
37910;DHT22;23741;49.446;8.754;2023-07-30T05:55:59;22.40;76.60
37910;DHT22;23741;49.446;8.754;2023-07-30T05:58:01;22.40;76.50
37910;DHT22;23741;49.446;8.754;2023-07-30T06:00:03;22.40;76.30
37910;DHT22;23741;49.446;8.754;2023-07-30T06:02:12;22.50;76.50
37910;DHT22;23741;49.446;8.754;2023-07-30T06:04:14;22.50;76.60
37910;DHT22;23741;49.446;8.754;2023-07-30T06:06:16;22.50;76.60
37910;DHT22;23741;49.446;8.754;2023-07-30T06:08:18;22.50;76.70
37910;DHT22;23741;49.446;8.754;2023-07-30T06:10:20;22.50;76.60
37910;DHT22;23741;49.446;8.754;2023-07-30T06:12:22;22.50;76.70
37910;DHT22;23741;49.446;8.754;2023-07-30T06:14:24;22.50;77.00
37910;DHT22;23741;49.446;8.754;2023-07-30T06:16:26;22.50;77.00
37910;DHT22;23741;49.446;8.754;2023-07-30T06:18:29;22.50;77.10
37910;DHT22;23741;49.446;8.754;2023-07-30T06:20:30;22.50;77.00
37910;DHT22;23741;49.446;8.754;2023-07-30T06:22:32;22.50;77.00
37910;DHT22;23741;49.446;8.754;2023-07-30T06:24:34;22.60;77.00
37910;DHT22;23741;49.446;8.754;2023-07-30T06:26:36;22.60;77.00
37910;DHT22;23741;49.446;8.754;2023-07-30T06:28:38;22.60;77.10
37910;DHT22;23741;49.446;8.754;2023-07-30T06:30:40;22.60;77.10
37910;DHT22;23741;49.446;8.754;2023-07-30T06:32:42;22.60;76.90
37910;DHT22;23741;49.446;8.754;2023-07-30T06:34:44;22.70;76.90
37910;DHT22;23741;49.446;8.754;2023-07-30T06:36:46;22.70;76.80
37910;DHT22;23741;49.446;8.754;2023-07-30T06:38:47;22.70;76.80
37910;DHT22;23741;49.446;8.754;2023-07-30T06:40:49;22.70;77.00
37910;DHT22;23741;49.446;8.754;2023-07-30T06:42:51;22.70;76.90
37910;DHT22;23741;49.446;8.754;2023-07-30T06:44:53;22.70;76.90
37910;DHT22;23741;49.446;8.754;2023-07-30T06:46:55;22.80;76.50
37910;DHT22;23741;49.446;8.754;2023-07-30T06:48:57;22.80;76.40
37910;DHT22;23741;49.446;8.754;2023-07-30T06:50:58;22.80;76.40
37910;DHT22;23741;49.446;8.754;2023-07-30T06:53:00;22.80;76.00
37910;DHT22;23741;49.446;8.754;2023-07-30T06:55:03;22.80;75.70
37910;DHT22;23741;49.446;8.754;2023-07-30T06:57:05;22.80;75.50
37910;DHT22;23741;49.446;8.754;2023-07-30T06:59:07;22.80;75.50
37910;DHT22;23741;49.446;8.754;2023-07-30T07:01:08;22.90;75.80
37910;DHT22;23741;49.446;8.754;2023-07-30T07:03:10;22.90;75.60
37910;DHT22;23741;49.446;8.754;2023-07-30T07:05:12;22.90;75.60
37910;DHT22;23741;49.446;8.754;2023-07-30T07:07:14;22.90;75.80
37910;DHT22;23741;49.446;8.754;2023-07-30T07:09:16;22.90;76.10
37910;DHT22;23741;49.446;8.754;2023-07-30T07:11:19;22.90;76.00
37910;DHT22;23741;49.446;8.754;2023-07-30T07:13:21;22.90;76.10
37910;DHT22;23741;49.446;8.754;2023-07-30T07:15:23;22.90;76.00
37910;DHT22;23741;49.446;8.754;2023-07-30T07:17:24;22.90;75.80
37910;DHT22;23741;49.446;8.754;2023-07-30T07:19:26;22.90;76.00
37910;DHT22;23741;49.446;8.754;2023-07-30T07:21:28;22.90;75.80
37910;DHT22;23741;49.446;8.754;2023-07-30T07:23:30;22.90;75.80
37910;DHT22;23741;49.446;8.754;2023-07-30T07:25:32;22.90;75.90
37910;DHT22;23741;49.446;8.754;2023-07-30T07:27:33;22.90;76.00
37910;DHT22;23741;49.446;8.754;2023-07-30T07:29:35;22.80;75.80
37910;DHT22;23741;49.446;8.754;2023-07-30T07:31:37;22.80;75.60
37910;DHT22;23741;49.446;8.754;2023-07-30T07:33:40;22.80;75.80
37910;DHT22;23741;49.446;8.754;2023-07-30T07:35:42;22.80;75.80
37910;DHT22;23741;49.446;8.754;2023-07-30T07:37:43;22.80;75.90
37910;DHT22;23741;49.446;8.754;2023-07-30T07:39:46;22.80;76.00
37910;DHT22;23741;49.446;8.754;2023-07-30T07:41:47;22.80;76.20
37910;DHT22;23741;49.446;8.754;2023-07-30T07:43:49;22.80;76.20
37910;DHT22;23741;49.446;8.754;2023-07-30T07:45:54;22.80;76.20
37910;DHT22;23741;49.446;8.754;2023-07-30T07:47:56;22.80;76.30
37910;DHT22;23741;49.446;8.754;2023-07-30T07:49:58;22.80;76.30
37910;DHT22;23741;49.446;8.754;2023-07-30T07:52:00;22.80;76.10
37910;DHT22;23741;49.446;8.754;2023-07-30T07:54:01;22.70;76.00
37910;DHT22;23741;49.446;8.754;2023-07-30T07:56:03;22.70;76.00
37910;DHT22;23741;49.446;8.754;2023-07-30T07:58:05;22.70;76.20
37910;DHT22;23741;49.446;8.754;2023-07-30T08:00:07;22.70;76.40
37910;DHT22;23741;49.446;8.754;2023-07-30T08:02:13;22.70;76.40
37910;DHT22;23741;49.446;8.754;2023-07-30T08:04:14;22.60;76.50
37910;DHT22;23741;49.446;8.754;2023-07-30T08:06:16;22.70;76.50
37910;DHT22;23741;49.446;8.754;2023-07-30T08:08:18;22.60;76.70
37910;DHT22;23741;49.446;8.754;2023-07-30T08:10:20;22.60;76.70
37910;DHT22;23741;49.446;8.754;2023-07-30T08:12:22;22.60;76.50
37910;DHT22;23741;49.446;8.754;2023-07-30T08:14:24;22.60;76.60
37910;DHT22;23741;49.446;8.754;2023-07-30T08:16:27;22.60;77.10
37910;DHT22;23741;49.446;8.754;2023-07-30T08:18:29;22.60;77.10
37910;DHT22;23741;49.446;8.754;2023-07-30T08:20:31;22.60;77.20
37910;DHT22;23741;49.446;8.754;2023-07-30T08:22:33;22.60;77.30
37910;DHT22;23741;49.446;8.754;2023-07-30T08:24:35;22.60;77.70
37910;DHT22;23741;49.446;8.754;2023-07-30T08:26:36;22.70;77.60
37910;DHT22;23741;49.446;8.754;2023-07-30T08:28:38;22.70;77.50
37910;DHT22;23741;49.446;8.754;2023-07-30T08:30:40;22.70;77.20
37910;DHT22;23741;49.446;8.754;2023-07-30T08:32:42;22.70;77.20
37910;DHT22;23741;49.446;8.754;2023-07-30T08:34:44;22.70;76.80
37910;DHT22;23741;49.446;8.754;2023-07-30T08:36:46;22.70;76.50
37910;DHT22;23741;49.446;8.754;2023-07-30T08:38:48;22.70;76.70
37910;DHT22;23741;49.446;8.754;2023-07-30T08:40:50;22.70;76.90
37910;DHT22;23741;49.446;8.754;2023-07-30T08:42:52;22.70;77.10
37910;DHT22;23741;49.446;8.754;2023-07-30T08:44:54;22.80;77.00
37910;DHT22;23741;49.446;8.754;2023-07-30T08:46:56;22.80;77.10
37910;DHT22;23741;49.446;8.754;2023-07-30T08:48:58;22.80;77.20
37910;DHT22;23741;49.446;8.754;2023-07-30T08:51:01;22.80;77.10
37910;DHT22;23741;49.446;8.754;2023-07-30T08:53:03;22.80;77.20
37910;DHT22;23741;49.446;8.754;2023-07-30T08:55:06;22.80;77.20
37910;DHT22;23741;49.446;8.754;2023-07-30T08:57:08;22.80;77.20
37910;DHT22;23741;49.446;8.754;2023-07-30T08:59:11;22.90;77.20
37910;DHT22;23741;49.446;8.754;2023-07-30T09:01:14;22.90;77.20
37910;DHT22;23741;49.446;8.754;2023-07-30T09:03:17;22.90;77.10
37910;DHT22;23741;49.446;8.754;2023-07-30T09:05:20;23.00;76.80
37910;DHT22;23741;49.446;8.754;2023-07-30T09:07:24;23.00;76.20
37910;DHT22;23741;49.446;8.754;2023-07-30T09:09:26;23.00;76.10
37910;DHT22;23741;49.446;8.754;2023-07-30T09:11:27;23.00;75.90
37910;DHT22;23741;49.446;8.754;2023-07-30T09:13:29;23.10;75.50
37910;DHT22;23741;49.446;8.754;2023-07-30T09:15:33;23.10;75.50
37910;DHT22;23741;49.446;8.754;2023-07-30T09:17:35;23.10;75.90
37910;DHT22;23741;49.446;8.754;2023-07-30T09:19:37;23.10;75.40
37910;DHT22;23741;49.446;8.754;2023-07-30T09:21:39;23.10;74.60
37910;DHT22;23741;49.446;8.754;2023-07-30T09:23:46;23.20;73.80
37910;DHT22;23741;49.446;8.754;2023-07-30T09:25:48;23.20;73.60
37910;DHT22;23741;49.446;8.754;2023-07-30T09:27:51;23.20;73.30
37910;DHT22;23741;49.446;8.754;2023-07-30T09:29:55;23.30;73.40
37910;DHT22;23741;49.446;8.754;2023-07-30T09:31:57;23.30;72.00
37910;DHT22;23741;49.446;8.754;2023-07-30T09:33:59;23.30;72.00
37910;DHT22;23741;49.446;8.754;2023-07-30T09:36:02;23.40;71.70
37910;DHT22;23741;49.446;8.754;2023-07-30T09:38:04;23.40;70.50
37910;DHT22;23741;49.446;8.754;2023-07-30T09:40:12;23.40;70.80
37910;DHT22;23741;49.446;8.754;2023-07-30T09:42:14;23.40;70.20
37910;DHT22;23741;49.446;8.754;2023-07-30T09:44:18;23.40;71.20
37910;DHT22;23741;49.446;8.754;2023-07-30T09:46:20;23.50;69.30
37910;DHT22;23741;49.446;8.754;2023-07-30T09:48:22;23.50;69.10
37910;DHT22;23741;49.446;8.754;2023-07-30T09:50:23;23.50;68.90
37910;DHT22;23741;49.446;8.754;2023-07-30T09:52:26;23.50;68.90
37910;DHT22;23741;49.446;8.754;2023-07-30T09:54:28;23.50;68.40
37910;DHT22;23741;49.446;8.754;2023-07-30T09:56:30;23.50;68.70
37910;DHT22;23741;49.446;8.754;2023-07-30T09:58:32;23.60;70.00
37910;DHT22;23741;49.446;8.754;2023-07-30T10:00:34;23.60;69.00
37910;DHT22;23741;49.446;8.754;2023-07-30T10:02:41;23.60;68.70
37910;DHT22;23741;49.446;8.754;2023-07-30T10:04:48;23.60;67.40
37910;DHT22;23741;49.446;8.754;2023-07-30T10:06:58;23.60;67.00
37910;DHT22;23741;49.446;8.754;2023-07-30T10:09:02;23.60;66.50
37910;DHT22;23741;49.446;8.754;2023-07-30T10:11:05;23.60;66.80
37910;DHT22;23741;49.446;8.754;2023-07-30T10:13:09;23.60;66.90
37910;DHT22;23741;49.446;8.754;2023-07-30T10:15:13;23.60;66.10
37910;DHT22;23741;49.446;8.754;2023-07-30T10:17:17;23.60;66.60
37910;DHT22;23741;49.446;8.754;2023-07-30T10:19:26;23.60;66.40
37910;DHT22;23741;49.446;8.754;2023-07-30T10:21:28;23.60;66.70
37910;DHT22;23741;49.446;8.754;2023-07-30T10:23:33;23.70;67.10
37910;DHT22;23741;49.446;8.754;2023-07-30T10:25:48;23.70;67.20
37910;DHT22;23741;49.446;8.754;2023-07-30T10:27:50;23.70;65.80
37910;DHT22;23741;49.446;8.754;2023-07-30T10:30:14;23.80;66.60
37910;DHT22;23741;49.446;8.754;2023-07-30T10:32:16;23.80;65.50
37910;DHT22;23741;49.446;8.754;2023-07-30T10:34:17;23.90;66.20
37910;DHT22;23741;49.446;8.754;2023-07-30T10:36:46;23.90;65.70
37910;DHT22;23741;49.446;8.754;2023-07-30T10:38:48;24.00;64.90
37910;DHT22;23741;49.446;8.754;2023-07-30T10:41:16;24.10;65.40
37910;DHT22;23741;49.446;8.754;2023-07-30T10:43:19;24.10;64.00
37910;DHT22;23741;49.446;8.754;2023-07-30T10:45:25;24.20;64.50
37910;DHT22;23741;49.446;8.754;2023-07-30T10:47:27;24.20;63.10
37910;DHT22;23741;49.446;8.754;2023-07-30T10:49:41;24.20;64.10
37910;DHT22;23741;49.446;8.754;2023-07-30T10:51:45;24.20;63.60
37910;DHT22;23741;49.446;8.754;2023-07-30T10:53:48;24.10;63.70
37910;DHT22;23741;49.446;8.754;2023-07-30T10:55:50;24.10;63.90
37910;DHT22;23741;49.446;8.754;2023-07-30T10:57:54;24.20;64.20
37910;DHT22;23741;49.446;8.754;2023-07-30T10:59:57;24.20;64.10
37910;DHT22;23741;49.446;8.754;2023-07-30T11:02:00;24.20;64.40
37910;DHT22;23741;49.446;8.754;2023-07-30T11:04:06;24.20;63.70
37910;DHT22;23741;49.446;8.754;2023-07-30T11:06:08;24.30;63.40
37910;DHT22;23741;49.446;8.754;2023-07-30T11:08:10;24.40;62.60
37910;DHT22;23741;49.446;8.754;2023-07-30T11:10:12;24.40;62.70
37910;DHT22;23741;49.446;8.754;2023-07-30T11:12:15;24.50;62.10
37910;DHT22;23741;49.446;8.754;2023-07-30T11:14:24;24.60;61.60
37910;DHT22;23741;49.446;8.754;2023-07-30T11:16:29;24.70;61.20
37910;DHT22;23741;49.446;8.754;2023-07-30T11:18:31;24.70;60.30
37910;DHT22;23741;49.446;8.754;2023-07-30T11:20:35;24.70;60.50
37910;DHT22;23741;49.446;8.754;2023-07-30T11:22:38;24.80;59.70
37910;DHT22;23741;49.446;8.754;2023-07-30T11:24:40;24.80;59.40
37910;DHT22;23741;49.446;8.754;2023-07-30T11:26:43;24.90;59.30
37910;DHT22;23741;49.446;8.754;2023-07-30T11:28:45;24.90;59.50
37910;DHT22;23741;49.446;8.754;2023-07-30T11:30:50;25.00;59.80
37910;DHT22;23741;49.446;8.754;2023-07-30T11:32:52;25.10;58.90
37910;DHT22;23741;49.446;8.754;2023-07-30T11:34:54;25.20;58.60
37910;DHT22;23741;49.446;8.754;2023-07-30T11:36:58;25.20;58.30
37910;DHT22;23741;49.446;8.754;2023-07-30T11:39:00;25.30;58.40
37910;DHT22;23741;49.446;8.754;2023-07-30T11:41:03;25.30;58.40
37910;DHT22;23741;49.446;8.754;2023-07-30T11:43:05;25.40;58.10
37910;DHT22;23741;49.446;8.754;2023-07-30T11:45:23;25.40;57.50
37910;DHT22;23741;49.446;8.754;2023-07-30T11:47:25;25.50;56.30
37910;DHT22;23741;49.446;8.754;2023-07-30T11:49:27;25.50;56.80
37910;DHT22;23741;49.446;8.754;2023-07-30T11:51:29;25.50;56.40
37910;DHT22;23741;49.446;8.754;2023-07-30T11:53:48;25.50;56.50
37910;DHT22;23741;49.446;8.754;2023-07-30T11:55:51;25.50;56.10
37910;DHT22;23741;49.446;8.754;2023-07-30T11:57:53;25.60;56.70
37910;DHT22;23741;49.446;8.754;2023-07-30T11:59:55;25.50;55.90
37910;DHT22;23741;49.446;8.754;2023-07-30T12:01:57;25.50;56.80
37910;DHT22;23741;49.446;8.754;2023-07-30T12:04:01;25.50;57.70
37910;DHT22;23741;49.446;8.754;2023-07-30T12:06:07;25.50;57.30
37910;DHT22;23741;49.446;8.754;2023-07-30T12:08:16;25.60;56.30
37910;DHT22;23741;49.446;8.754;2023-07-30T12:10:18;25.60;57.00
37910;DHT22;23741;49.446;8.754;2023-07-30T12:12:25;25.70;57.00
37910;DHT22;23741;49.446;8.754;2023-07-30T12:16:50;25.70;54.30
37910;DHT22;23741;49.446;8.754;2023-07-30T12:18:52;25.80;55.80
37910;DHT22;23741;49.446;8.754;2023-07-30T12:20:55;25.80;55.80
37910;DHT22;23741;49.446;8.754;2023-07-30T12:22:57;25.80;55.40
37910;DHT22;23741;49.446;8.754;2023-07-30T12:25:00;25.70;54.90
37910;DHT22;23741;49.446;8.754;2023-07-30T12:27:02;25.70;54.10
37910;DHT22;23741;49.446;8.754;2023-07-30T12:29:04;25.70;53.90
37910;DHT22;23741;49.446;8.754;2023-07-30T12:31:05;25.70;52.50
37910;DHT22;23741;49.446;8.754;2023-07-30T12:33:08;25.70;53.00
37910;DHT22;23741;49.446;8.754;2023-07-30T12:35:10;25.70;53.00
37910;DHT22;23741;49.446;8.754;2023-07-30T12:37:12;25.80;52.60
37910;DHT22;23741;49.446;8.754;2023-07-30T12:39:13;25.90;52.80
37910;DHT22;23741;49.446;8.754;2023-07-30T12:41:15;25.90;52.40
37910;DHT22;23741;49.446;8.754;2023-07-30T12:43:17;25.90;52.20
37910;DHT22;23741;49.446;8.754;2023-07-30T12:45:20;25.90;52.10
37910;DHT22;23741;49.446;8.754;2023-07-30T12:47:22;25.80;51.90
37910;DHT22;23741;49.446;8.754;2023-07-30T12:49:25;25.90;52.60
37910;DHT22;23741;49.446;8.754;2023-07-30T12:51:27;25.90;53.20
37910;DHT22;23741;49.446;8.754;2023-07-30T12:53:29;25.90;54.30
37910;DHT22;23741;49.446;8.754;2023-07-30T12:55:31;25.90;53.70
37910;DHT22;23741;49.446;8.754;2023-07-30T12:57:33;26.00;53.30